createdAt,value
2019-02-07T00:07:51.011Z,36.1
2019-02-07T00:17:54.687Z,35.9
2019-02-07T00:27:58.395Z,36.1
2019-02-07T00:38:03.280Z,35.9
2019-02-07T00:48:06.992Z,35.9
2019-02-07T00:58:10.689Z,35.9
2019-02-07T01:08:14.413Z,35.8
2019-02-07T01:18:18.071Z,36
2019-02-07T01:28:21.767Z,36
2019-02-07T01:38:25.470Z,35.8
2019-02-07T01:48:29.172Z,35.7
2019-02-07T01:58:32.876Z,35.6
2019-02-07T02:08:36.598Z,35.6
2019-02-07T02:18:40.277Z,35.8
2019-02-07T02:28:43.972Z,35.8
2019-02-07T02:38:47.674Z,35.7
2019-02-07T02:48:51.366Z,35.7
2019-02-07T02:58:55.071Z,35.8
2019-02-07T03:08:58.779Z,35.7
2019-02-07T03:19:02.465Z,35.6
2019-02-07T03:29:06.494Z,35.7
2019-02-07T03:39:11.056Z,35.7
2019-02-07T03:49:14.745Z,35.6
2019-02-07T03:59:18.459Z,35.7
2019-02-07T04:09:22.172Z,35.6
2019-02-07T04:19:26.884Z,35.5
2019-02-07T04:29:30.593Z,35.6
2019-02-07T04:39:34.288Z,35.3
2019-02-07T04:49:37.988Z,35.4
2019-02-07T04:59:41.688Z,35.4
2019-02-07T05:09:45.386Z,35.3
2019-02-07T05:19:49.161Z,35.4
2019-02-07T05:29:52.865Z,35.4
2019-02-07T05:39:57.578Z,35.2
2019-02-07T05:50:01.562Z,35
2019-02-07T06:00:05.284Z,34.8
2019-02-07T06:10:08.997Z,34.7
2019-02-07T06:20:13.029Z,34.8
2019-02-07T06:30:17.605Z,34.8
2019-02-07T06:40:21.296Z,34.8
2019-02-07T06:50:24.988Z,34.7
2019-02-07T07:00:28.712Z,34.8
2019-02-07T07:10:32.403Z,34.7
2019-02-07T07:20:36.100Z,34.7
2019-02-07T07:30:39.810Z,34.6
2019-02-07T07:40:43.611Z,34.6
2019-02-07T07:50:47.631Z,34.6
2019-02-07T08:00:52.102Z,43.2
2019-02-07T08:10:55.804Z,45
2019-02-07T08:20:59.503Z,53.3
2019-02-07T08:31:03.211Z,40.2
2019-02-07T08:41:06.942Z,37.5
2019-02-07T08:51:10.654Z,37.5
2019-02-07T09:01:14.363Z,37.8
2019-02-07T09:11:18.061Z,37.8
2019-02-07T09:22:37.975Z,37.7
2019-02-07T09:32:41.681Z,37.8
2019-02-07T09:42:45.425Z,37.4
2019-02-07T09:52:49.129Z,37.3
2019-02-07T10:02:52.849Z,37.4
2019-02-07T10:12:56.592Z,37.6
2019-02-07T10:23:00.341Z,37.7
2019-02-07T10:33:04.036Z,37.8
2019-02-07T10:43:07.738Z,37.7
2019-02-07T10:53:11.467Z,37.8
2019-02-07T11:03:15.674Z,37.7
2019-02-07T11:13:19.372Z,37.7
2019-02-07T11:23:23.067Z,37.7
2019-02-07T11:33:26.767Z,39.4
2019-02-07T11:43:30.468Z,39.2
2019-02-07T11:53:34.154Z,38.6
2019-02-07T12:03:37.855Z,38.8
2019-02-07T12:13:41.565Z,38.9
2019-02-07T12:23:45.251Z,39.3
2019-02-07T12:33:49.695Z,39.8
2019-02-07T12:43:53.404Z,39.8
2019-02-07T12:53:57.089Z,40
2019-02-07T13:04:01.010Z,40
2019-02-07T13:14:04.833Z,40.3
2019-02-07T13:24:08.585Z,40
2019-02-07T13:34:12.373Z,39.8
2019-02-07T13:44:16.091Z,39.7
2019-02-07T13:54:20.288Z,39.6
2019-02-07T14:04:24.915Z,39.6
2019-02-07T14:14:28.605Z,40.7
2019-02-07T14:24:32.608Z,41.6
2019-02-07T14:34:36.288Z,41.7
2019-02-07T14:44:39.992Z,41.3
2019-02-07T14:54:43.677Z,41
2019-02-07T15:04:47.373Z,41.3
2019-02-07T15:14:51.082Z,41.6
2019-02-07T15:24:54.777Z,43
2019-02-07T15:34:58.463Z,44.4
2019-02-07T15:45:02.173Z,44.4
2019-02-07T15:55:05.899Z,44
2019-02-07T16:05:09.655Z,43.5
2019-02-07T16:15:13.384Z,43.2
2019-02-07T16:25:17.061Z,42.9
2019-02-07T16:35:20.718Z,42.7
2019-02-07T16:45:24.410Z,43
2019-02-07T16:55:28.104Z,43
2019-02-07T17:05:31.795Z,43.5
2019-02-07T17:15:35.494Z,43.6
2019-02-07T17:25:39.191Z,43.7
2019-02-07T17:35:42.900Z,44.5
2019-02-07T17:45:46.618Z,49.1
2019-02-07T17:55:50.316Z,49.3
2019-02-07T18:05:54.029Z,47.4
2019-02-07T18:15:57.992Z,45.9
2019-02-07T18:26:01.694Z,44.6
2019-02-07T18:36:05.384Z,43.3
2019-02-07T18:46:09.110Z,42.6
2019-02-07T18:56:12.827Z,42.1
2019-02-07T19:06:16.560Z,41.8
2019-02-07T19:16:20.398Z,41.5
2019-02-07T19:26:24.096Z,41.2
2019-02-07T19:36:27.801Z,41
2019-02-07T19:46:31.509Z,40.8
2019-02-07T19:56:35.430Z,40.6
2019-02-07T20:06:41.828Z,40.6
2019-02-07T20:16:45.538Z,40.5
2019-02-07T20:26:49.259Z,40.4
2019-02-07T20:36:53.047Z,40.3
2019-02-07T20:46:56.757Z,40.2
2019-02-07T20:57:00.475Z,40.2
2019-02-07T21:07:04.203Z,40.1
2019-02-07T21:17:07.951Z,40
2019-02-07T21:27:11.672Z,40
2019-02-07T21:37:15.679Z,39.8
2019-02-07T21:47:20.122Z,39.7
2019-02-07T21:57:23.847Z,39.8
2019-02-07T22:07:27.558Z,40
2019-02-07T22:17:31.237Z,40.2
2019-02-07T22:27:34.954Z,40.4
2019-02-07T22:37:38.700Z,40.2
2019-02-07T22:47:42.415Z,39.9
2019-02-07T22:57:46.120Z,39.7
2019-02-07T23:07:49.827Z,39.7
2019-02-07T23:17:53.540Z,39.7
2019-02-07T23:27:57.223Z,39.6
2019-02-07T23:38:00.923Z,39.5
2019-02-07T23:48:04.604Z,39.5
2019-02-07T23:58:08.314Z,39.5
